Time;durP1;ratioP1;P1;durP2;ratioP2;P2;SDS_P1;SDS_P2;PMS_P1;PMS_P2;Temp;Humidity;BMP_temperature;BMP_pressure;BME280_temperature;BME280_humidity;BME280_pressure;Samples;Min_cycle;Max_cycle;Signal;HPM_P1;HPM_P2
2023/10/02 00:32:52;;;;;;;;;;;;;;;;;;;;;
2023/10/02 00:55:40;;;;;;;;;;;;;;;;;;;;;
2023/10/02 00:59:45;;;;;;;;;;;15.80;66.90;;;15.06;60.78;96843.25;5922352;24;19927;-90
2023/10/02 01:03:53;;;;;;;;;;;;;;;;;;;;;
2023/10/02 01:52:37;;;;;;;;;;;;;;;;;;;;;
2023/10/02 01:55:45;;;;;;;;;;;15.90;67.80;;;15.13;61.76;96867.75;5990789;23;19930;-90
2023/10/02 01:59:59;;;;;;;;;;;;;;;;;;;;;
2023/10/02 02:07:12;;;;;;;;;;;;;;;;;;;;;
2023/10/02 02:10:54;;;;;;;;;;;15.70;67.70;;;14.89;61.62;96873.91;5932880;23;19926;-89
2023/10/02 02:15:04;;;;;;;;;;;15.70;68.00;;;14.83;61.77;96872.28;5887856;24;19931;-89
2023/10/02 02:18:58;;;;;;;;;;;;;;;;;;;;;
2023/10/02 02:22:23;;;;;;;;;;;;;;;;;;;;;
2023/10/02 02:33:05;;;;;;;;;;;;;;;;;;;;;
2023/10/02 02:37:06;;;;;;;;;;;;;;;;;;;;;
2023/10/02 02:56:10;;;;;;;;;;;15.20;69.50;;;14.47;62.84;96899.91;5921057;23;19922;-90
2023/10/02 03:03:07;;;;;;;;;;;;;;;;;;;;;
2023/10/02 03:06:35;;;;;;;;;;;15.20;69.60;;;14.42;63.10;96903.50;6010799;23;20361;-89
2023/10/02 03:13:04;;;;;;;;;;;;;;;;;;;;;
2023/10/02 03:16:08;;;;;;;;;;;15.20;70.20;;;14.49;63.48;96914.25;6020196;23;20263;-89
2023/10/02 03:19:23;;;;;;;;;;;15.20;70.20;;;14.52;63.44;96919.19;6038592;23;19922;-89
2023/10/02 03:22:17;;;;;;;;;;;15.30;70.20;;;14.54;63.06;96922.47;6044862;23;19922;-89
2023/10/02 03:25:43;;;;;;;;;;;15.30;70.00;;;14.55;63.12;96907.59;6021005;23;19921;-89
2023/10/02 03:28:45;;;;;;;;;;;15.30;69.80;;;14.53;63.26;96918.06;6005050;23;19925;-89
2023/10/02 03:31:49;;;;;;;;;;;15.30;69.90;;;14.53;63.27;96920.81;5916689;24;19934;-90
2023/10/02 03:35:21;;;;;;;;;;;15.30;70.00;;;14.53;63.41;96918.06;5962959;24;20055;-89
2023/10/02 03:38:17;;;;;;;;;;;15.20;69.90;;;14.52;63.32;96930.22;5880994;24;20282;-89
2023/10/02 04:32:22;;;;;;;;;;;15.20;71.20;;;14.41;63.69;96943.19;5316912;22;19568455;-90
2023/10/02 04:38:49;;;;;;;;;;;15.10;70.40;;;14.37;63.71;96945.66;6090839;23;19921;-89
2023/10/02 04:42:57;;;;;;;;;;;15.10;70.30;;;14.39;63.65;96946.19;6055013;23;19922;-89
2023/10/02 04:45:36;;;;;;;;;;;15.10;70.30;;;14.38;63.36;96952.00;6102133;23;19921;-89
2023/10/02 04:53:02;;;;;;;;;;;;;;;;;;;;;
2023/10/02 04:56:01;;;;;;;;;;;15.00;70.20;;;14.28;63.45;96958.31;6085621;23;19928;-89
2023/10/02 04:59:50;;;;;;;;;;;15.00;70.40;;;14.29;63.76;96965.47;6085806;23;19928;-89
2023/10/02 05:17:56;;;;;;;;;;;;;;;;;;;;;
2023/10/02 10:30:10;;;;;;;;;;;17.80;59.20;;;16.92;54.91;97090.50;5042580;27;2559656;-91
2023/10/02 10:32:41;;;;;;;;;;;17.70;60.20;;;16.92;54.86;97084.97;6068411;23;34418;-92
2023/10/02 10:35:15;;;;;;;;;;;17.70;60.00;;;16.92;54.69;97084.97;6065650;23;19932;-92
2023/10/02 10:37:46;;;;;;;;;;;17.70;59.90;;;16.91;54.95;97079.75;6089103;23;19924;-92
2023/10/02 10:40:46;;;;;;;;;;;17.70;60.10;;;16.93;55.12;97083.06;6065396;23;19928;-92
2023/10/02 10:43:15;;;;;;;;;;;17.70;60.20;;;16.91;54.86;97086.09;6065172;23;19928;-92
2023/10/02 10:45:48;;;;;;;;;;;17.70;60.10;;;16.91;55.17;97079.75;6065952;23;19928;-92
2023/10/02 10:48:22;;;;;;;;;;;17.70;60.40;;;16.87;55.03;97080.31;6065592;23;19921;-92
2023/10/02 10:50:59;;;;;;;;;;;17.60;59.90;;;16.85;54.97;97077.00;6065633;23;19925;-92
2023/10/02 10:53:29;;;;;;;;;;;17.60;60.00;;;16.84;55.29;97080.09;6114130;23;20257;-92
2023/10/02 10:56:16;;;;;;;;;;;17.60;60.30;;;16.83;55.46;97078.44;6066113;23;19921;-92
2023/10/02 10:58:48;;;;;;;;;;;17.60;60.60;;;16.81;55.32;97070.44;6065045;23;19929;-92
2023/10/02 11:01:22;;;;;;;;;;;17.60;60.40;;;16.78;54.99;97065.47;6089409;23;19920;-92
2023/10/02 11:03:55;;;;;;;;;;;17.60;60.30;;;16.78;54.46;97071.00;6087173;23;19925;-92
2023/10/02 11:06:24;;;;;;;;;;;17.60;59.50;;;16.78;54.55;97071.00;6064584;23;19921;-92
2023/10/02 11:09:11;;;;;;;;;;;17.60;59.50;;;16.78;54.65;97065.47;6065899;23;20248;-92
2023/10/02 11:11:49;;;;;;;;;;;17.60;59.80;;;16.80;54.82;97066.00;6089131;23;19925;-92
2023/10/02 11:14:22;;;;;;;;;;;17.60;60.00;;;16.81;54.90;97066.81;6065405;23;19924;-92
2023/10/02 11:16:56;;;;;;;;;;;17.60;60.00;;;16.78;55.00;97065.47;6041788;23;19951;-92
2023/10/02 11:19:26;;;;;;;;;;;17.60;60.10;;;16.77;55.06;97066.59;6065357;23;20272;-92
2023/10/02 11:22:14;;;;;;;;;;;17.50;60.20;;;16.73;55.17;97057.22;6065233;23;19936;-92
2023/10/02 11:24:45;;;;;;;;;;;17.50;60.20;;;16.71;54.67;97051.16;6065487;23;19928;-92
2023/10/02 11:27:16;;;;;;;;;;;17.50;59.90;;;16.71;54.82;97056.69;6065721;23;19921;-92
2023/10/02 11:30:00;;;;;;;;;;;17.50;60.00;;;16.70;54.43;97053.09;6079464;23;19937;-92
2023/10/02 11:32:53;;;;;;;;;;;17.50;59.80;;;16.70;55.15;97046.75;6078175;23;20680;-89
2023/10/02 11:35:28;;;;;;;;;;;17.50;60.30;;;16.69;55.32;97050.63;6077468;23;19922;-90
2023/10/02 11:37:58;;;;;;;;;;;17.50;60.50;;;16.68;55.41;97048.97;6078158;23;19928;-90
2023/10/02 11:40:29;;;;;;;;;;;17.50;60.60;;;16.68;55.13;97044.25;6077458;23;20465;-92
2023/10/02 11:43:00;;;;;;;;;;;17.50;60.30;;;16.67;55.34;97050.09;6053884;23;19925;-92
2023/10/02 11:45:32;;;;;;;;;;;17.40;60.50;;;16.67;55.15;97048.13;6054397;23;19922;-92
2023/10/02 11:48:03;;;;;;;;;;;17.50;60.30;;;16.65;55.27;97036.53;6053957;23;19922;-92
2023/10/02 11:50:38;;;;;;;;;;;17.50;60.50;;;16.69;55.12;97039.56;6079022;23;19921;-92
2023/10/02 11:53:08;;;;;;;;;;;17.40;60.30;;;16.68;55.26;97041.50;6054392;23;19921;-92
2023/10/02 11:55:37;;;;;;;;;;;17.50;60.60;;;16.68;55.15;97037.91;6077015;23;19921;-92
2023/10/02 11:58:10;;;;;;;;;;;17.40;60.60;;;16.68;55.33;97035.97;6053576;23;20342;-92
2023/10/02 12:00:41;;;;;;;;;;;17.40;60.60;;;16.65;55.34;97019.94;6076907;23;19922;-92
2023/10/02 12:03:18;;;;;;;;;;;17.40;60.60;;;16.65;55.42;97027.44;6077154;23;19929;-92
2023/10/02 12:05:50;;;;;;;;;;;17.40;60.70;;;16.65;55.48;97027.44;6054838;23;19928;-92
2023/10/02 12:08:21;;;;;;;;;;;17.40;60.80;;;16.63;55.39;97030.50;6077448;23;19925;-92
2023/10/02 12:10:55;;;;;;;;;;;17.40;60.70;;;16.62;55.42;97028.00;6054509;23;19944;-92
2023/10/02 12:13:25;;;;;;;;;;;17.40;60.50;;;16.62;55.63;97034.38;6030901;23;19921;-92
2023/10/02 12:15:54;;;;;;;;;;;17.40;61.00;;;16.61;55.49;97034.66;6079141;23;20254;-92
2023/10/02 12:18:26;;;;;;;;;;;17.40;60.80;;;16.59;55.49;97028.59;6031206;23;20334;-92
2023/10/02 12:20:56;;;;;;;;;;;17.40;60.80;;;16.60;55.43;97038.53;6030732;23;20368;-92
2023/10/02 12:23:28;;;;;;;;;;;17.40;60.70;;;16.60;55.47;97039.38;6054001;23;19928;-92
2023/10/02 12:25:58;;;;;;;;;;;17.40;60.80;;;16.62;55.22;97047.34;6054309;23;19928;-92
2023/10/02 12:28:28;;;;;;;;;;;17.40;60.40;;;16.60;55.56;97035.75;6054522;23;20262;-92
2023/10/02 12:30:59;;;;;;;;;;;17.40;60.70;;;16.59;55.58;97045.19;6054345;23;19921;-92
2023/10/02 12:33:32;;;;;;;;;;;17.40;61.00;;;16.59;55.55;97036.91;6077312;23;20269;-92
2023/10/02 12:36:01;;;;;;;;;;;17.40;60.80;;;16.56;55.56;97044.66;6078266;23;19929;-92
2023/10/02 12:38:30;;;;;;;;;;;17.40;60.90;;;16.56;55.07;97038.28;6076937;23;19974;-92
2023/10/02 12:41:02;;;;;;;;;;;17.30;60.30;;;16.54;54.67;97033.06;6054336;23;19921;-91
2023/10/02 12:43:31;;;;;;;;;;;17.30;59.90;;;16.53;54.43;97039.69;6077152;23;20357;-91
2023/10/02 12:46:04;;;;;;;;;;;17.30;59.50;;;16.53;54.58;97034.16;6054764;23;19928;-92
2023/10/02 12:48:37;;;;;;;;;;;17.30;59.70;;;16.54;54.66;97026.69;6054167;23;19932;-92
2023/10/02 12:51:07;;;;;;;;;;;17.30;59.90;;;16.53;55.02;97023.09;6078439;23;20230;-92
2023/10/02 12:53:37;;;;;;;;;;;17.30;60.20;;;16.54;55.36;97021.16;6054098;23;19937;-92
2023/10/02 12:56:07;;;;;;;;;;;17.30;60.50;;;16.55;55.07;97020.88;6054149;23;19921;-91
2023/10/02 12:58:37;;;;;;;;;;;17.30;60.40;;;16.55;55.28;97020.03;6054166;23;19922;-92
2023/10/02 13:01:06;;;;;;;;;;;17.30;60.60;;;16.54;55.38;97022.00;6077305;23;19936;-92
2023/10/02 13:03:37;;;;;;;;;;;17.30;60.60;;;16.54;55.94;97013.69;6054400;23;20114;-92
2023/10/02 13:06:06;;;;;;;;;;;17.30;61.10;;;16.53;55.82;97014.81;6077887;23;19921;-92
2023/10/02 13:08:37;;;;;;;;;;;17.30;61.10;;;16.55;55.74;97015.34;6054516;23;19921;-92
2023/10/02 13:11:10;;;;;;;;;;;17.30;61.20;;;16.55;55.92;97011.75;6054487;23;19926;-92
2023/10/02 13:13:39;;;;;;;;;;;17.30;61.40;;;16.56;55.86;97018.94;6054140;23;19928;-92
2023/10/02 13:16:11;;;;;;;;;;;17.30;61.20;;;16.56;55.90;97008.72;6054431;23;19928;-92
2023/10/02 13:18:43;;;;;;;;;;;17.40;61.20;;;16.57;55.95;97006.75;6053972;23;19925;-90
2023/10/02 13:21:18;;;;;;;;;;;17.30;61.30;;;16.56;55.48;97003.19;6078874;23;19921;-90
2023/10/02 13:23:48;;;;;;;;;;;17.30;60.70;;;16.58;55.79;97007.59;6078705;23;19925;-90
2023/10/02 13:26:18;;;;;;;;;;;17.40;61.20;;;16.59;55.86;97004.53;6054088;23;19925;-91
2023/10/02 13:28:51;;;;;;;;;;;17.40;61.30;;;16.60;55.74;97019.16;6053711;23;19928;-91
2023/10/02 13:31:21;;;;;;;;;;;17.40;61.20;;;16.59;55.93;97009.25;6054070;23;20376;-91
2023/10/02 13:33:53;;;;;;;;;;;17.30;61.30;;;16.59;55.77;97007.31;6054479;23;19925;-91
2023/10/02 13:36:23;;;;;;;;;;;17.40;61.20;;;16.59;55.28;97000.97;6077341;23;19928;-92
2023/10/02 13:38:53;;;;;;;;;;;17.40;60.60;;;16.59;55.81;97006.50;6053832;23;19921;-91
2023/10/02 13:41:22;;;;;;;;;;;17.30;61.20;;;16.58;55.14;97005.66;6054064;23;19944;-91
2023/10/02 13:43:53;;;;;;;;;;;17.40;60.70;;;16.56;55.58;97000.44;6054385;23;19925;-91
2023/10/02 13:46:23;;;;;;;;;;;17.30;61.00;;;16.56;55.47;97005.13;6054603;23;19921;-91
2023/10/02 13:48:55;;;;;;;;;;;17.40;60.80;;;16.55;55.45;97004.31;6054348;23;20345;-91
2023/10/02 13:51:25;;;;;;;;;;;17.40;60.70;;;16.56;55.61;97005.13;6077866;23;19922;-91
2023/10/02 13:53:54;;;;;;;;;;;17.30;61.00;;;16.55;55.60;97009.81;6054079;23;19921;-91
2023/10/02 13:56:25;;;;;;;;;;;17.30;61.00;;;16.54;55.55;96999.88;6031133;23;19921;-91
2023/10/02 13:58:54;;;;;;;;;;;17.30;60.90;;;16.55;55.65;97006.22;6054253;23;19922;-91
2023/10/02 14:01:26;;;;;;;;;;;17.30;60.80;;;16.55;55.36;97001.53;6031020;23;19928;-91
2023/10/02 14:03:58;;;;;;;;;;;17.30;60.80;;;16.54;55.39;97004.56;6054166;23;20350;-91
2023/10/02 14:06:28;;;;;;;;;;;17.30;60.70;;;16.55;55.37;97015.34;6054476;23;19921;-91
2023/10/02 14:08:59;;;;;;;;;;;17.30;60.70;;;16.54;55.35;97013.69;6077454;23;19929;-91
2023/10/02 14:11:29;;;;;;;;;;;17.30;60.60;;;16.54;55.45;97016.47;6079404;23;19921;-91
2023/10/02 14:14:00;;;;;;;;;;;17.30;60.70;;;16.54;55.63;97010.94;6030864;23;19928;-91
2023/10/02 14:16:29;;;;;;;;;;;17.30;60.70;;;16.54;55.54;97016.47;6054586;23;19927;-90
2023/10/02 14:19:00;;;;;;;;;;;17.30;60.80;;;16.54;55.58;97015.63;6078395;23;19921;-91
2023/10/02 14:21:29;;;;;;;;;;;17.30;60.90;;;16.54;55.39;97022.00;6054447;23;20258;-91
2023/10/02 14:23:59;;;;;;;;;;;17.30;60.70;;;16.54;55.33;97019.22;6053931;23;19921;-91
2023/10/02 14:26:29;;;;;;;;;;;17.30;60.80;;;16.54;54.88;97021.16;6054383;23;19922;-91
2023/10/02 14:29:00;;;;;;;;;;;17.30;60.30;;;16.53;55.41;97031.41;6077947;23;19921;-91
